Time;durP1;ratioP1;P1;durP2;ratioP2;P2;SDS_P1;SDS_P2;PMS_P1;PMS_P2;Temp;Humidity;BMP_temperature;BMP_pressure;BME280_temperature;BME280_humidity;BME280_pressure;Samples;Min_cycle;Max_cycle;Signal;HPM_P1;HPM_P2
2022/06/28 00:02:08;;;;;;;2.22;0.90;;;15.90;99.90;;;;;;5064577;28;20029;-67
2022/06/28 00:04:34;;;;;;;4.80;0.90;;;15.90;99.90;;;;;;5081880;28;20075;-67
2022/06/28 00:06:59;;;;;;;2.67;0.63;;;15.90;99.90;;;;;;5064929;28;20301;-68
2022/06/28 00:09:26;;;;;;;1.90;0.70;;;15.90;99.90;;;;;;5081569;28;20044;-66
2022/06/28 00:11:52;;;;;;;3.63;0.93;;;16.00;99.90;;;;;;5081456;28;20028;-67
2022/06/28 00:17:03;;;;;;;2.95;0.93;;;15.90;99.90;;;;;;5081889;28;20090;-68
2022/06/28 00:19:29;;;;;;;4.47;0.95;;;15.80;99.90;;;;;;5081075;28;20025;-67
2022/06/28 00:21:55;;;;;;;3.33;0.90;;;15.60;99.90;;;;;;5081492;28;20093;-66
2022/06/28 00:24:22;;;;;;;4.18;0.77;;;15.50;99.90;;;;;;5080824;28;20049;-65
2022/06/28 00:26:48;;;;;;;6.00;1.00;;;15.50;99.90;;;;;;5081147;28;20053;-66
2022/06/28 00:29:15;;;;;;;2.90;0.85;;;15.50;99.90;;;;;;5080992;28;20036;-67
2022/06/28 00:31:41;;;;;;;2.35;0.88;;;15.60;99.90;;;;;;5081030;28;20036;-67
2022/06/28 00:34:08;;;;;;;5.35;1.00;;;15.70;99.90;;;;;;5080786;28;20384;-68
2022/06/28 00:36:34;;;;;;;3.55;1.25;;;15.70;99.90;;;;;;5081043;28;20028;-66
2022/06/28 00:39:00;;;;;;;3.70;1.08;;;15.70;99.90;;;;;;5081006;28;20024;-67
2022/06/28 00:41:27;;;;;;;3.80;1.00;;;15.70;99.90;;;;;;5080443;28;20043;-66
2022/06/28 00:43:54;;;;;;;3.28;1.10;;;15.60;99.90;;;;;;5080068;28;20090;-68
2022/06/28 00:46:20;;;;;;;2.92;1.00;;;15.50;99.90;;;;;;5062341;28;20044;-67
2022/06/28 00:48:47;;;;;;;3.22;1.10;;;15.50;99.90;;;;;;5062512;28;20051;-68
2022/06/28 00:51:13;;;;;;;2.75;0.90;;;15.60;99.90;;;;;;5062984;28;20036;-67
2022/06/28 00:53:39;;;;;;;3.83;1.00;;;15.50;99.90;;;;;;5079691;28;20036;-66
2022/06/28 00:56:05;;;;;;;3.72;1.00;;;15.40;99.90;;;;;;5080374;28;20030;-67
2022/06/28 00:58:31;;;;;;;4.90;1.13;;;15.50;99.90;;;;;;5045919;28;20028;-68
2022/06/28 01:00:57;;;;;;;6.30;0.80;;;15.60;99.90;;;;;;5080626;28;20070;-67
2022/06/28 01:03:24;;;;;;;3.92;1.02;;;15.60;99.90;;;;;;5062179;28;20317;-66
2022/06/28 01:05:52;;;;;;;1.50;0.90;;;15.60;99.90;;;;;;5062865;28;20040;-68
2022/06/28 01:08:21;;;;;;;3.35;1.10;;;15.40;99.90;;;;;;5062734;28;20094;-68
2022/06/28 01:10:47;;;;;;;3.65;0.90;;;15.40;99.90;;;;;;5080844;28;20024;-66
2022/06/28 01:13:14;;;;;;;5.32;1.23;;;15.40;99.90;;;;;;5062320;28;20407;-68
2022/06/28 01:15:41;;;;;;;3.88;0.90;;;15.20;99.90;;;;;;5062206;28;20029;-66
2022/06/28 01:18:09;;;;;;;3.20;0.85;;;15.10;99.90;;;;;;5062196;28;20090;-68
2022/06/28 01:20:42;;;;;;;2.90;1.10;;;14.90;99.90;;;;;;5062640;28;20380;-66
2022/06/28 01:23:32;;;;;;;2.13;0.70;;;14.90;99.90;;;;;;5062387;28;20028;-67
2022/06/28 01:26:23;;;;;;;6.05;1.10;;;14.90;99.90;;;;;;5062642;28;20056;-68
2022/06/28 01:28:50;;;;;;;3.92;0.80;;;14.80;99.90;;;;;;5063225;28;20367;-67
2022/06/28 01:31:23;;;;;;;2.80;1.13;;;14.90;99.90;;;;;;5062663;28;20037;-67
2022/06/28 01:33:52;;;;;;;2.28;0.85;;;14.80;99.90;;;;;;5062529;28;20036;-68
2022/06/28 01:36:19;;;;;;;3.78;1.08;;;14.80;99.90;;;;;;5062686;28;20112;-67
2022/06/28 01:38:45;;;;;;;6.25;1.40;;;14.80;99.90;;;;;;5062579;28;20079;-67
2022/06/28 01:44:01;;;;;;;6.10;1.10;;;14.70;99.90;;;;;;5080792;28;20032;-68
2022/06/28 01:46:28;;;;;;;3.50;1.00;;;14.70;99.90;;;;;;5080181;28;20025;-67
2022/06/28 01:49:00;;;;;;;3.63;1.00;;;14.70;99.90;;;;;;5062072;28;20028;-67
2022/06/28 01:51:27;;;;;;;5.05;1.20;;;14.60;99.90;;;;;;5062791;28;20178;-66
2022/06/28 01:53:53;;;;;;;3.03;1.20;;;14.60;99.90;;;;;;5062209;28;20048;-67
2022/06/28 01:56:25;;;;;;;6.18;1.10;;;14.50;99.90;;;;;;5062106;28;20056;-67
2022/06/28 01:59:01;;;;;;;3.67;0.98;;;14.40;99.90;;;;;;5046670;28;20035;-67
2022/06/28 02:01:37;;;;;;;4.30;1.10;;;14.40;99.90;;;;;;5063259;28;20123;-66
2022/06/28 02:04:18;;;;;;;4.55;1.10;;;14.60;99.90;;;;;;5062366;28;20067;-68
2022/06/28 02:06:45;;;;;;;5.70;1.10;;;14.60;99.90;;;;;;5045002;28;20032;-68
2022/06/28 02:09:12;;;;;;;4.18;1.13;;;14.50;99.90;;;;;;5062288;28;20126;-69
2022/06/28 02:11:44;;;;;;;4.10;1.00;;;14.50;99.90;;;;;;5062104;28;20037;-66
2022/06/28 02:14:12;;;;;;;2.33;0.80;;;14.40;99.90;;;;;;5062128;28;20032;-66
2022/06/28 02:16:38;;;;;;;5.32;1.38;;;14.30;99.90;;;;;;5066012;28;20021;-65
2022/06/28 02:19:05;;;;;;;6.60;1.15;;;14.20;99.90;;;;;;5065774;28;20028;-67
2022/06/28 02:21:43;;;;;;;3.60;0.77;;;14.10;99.90;;;;;;5066364;28;20029;-67
2022/06/28 02:24:10;;;;;;;2.85;0.70;;;14.10;99.90;;;;;;5065901;28;20025;-68
2022/06/28 02:26:37;;;;;;;3.58;1.08;;;14.20;99.90;;;;;;5065100;28;20048;-68
2022/06/28 02:29:05;;;;;;;3.58;0.90;;;14.30;99.90;;;;;;5083256;28;20065;-70
2022/06/28 02:31:32;;;;;;;3.80;0.93;;;14.40;99.90;;;;;;5065114;28;20055;-67
2022/06/28 02:33:58;;;;;;;4.70;0.95;;;14.30;99.90;;;;;;5065691;28;20028;-67
2022/06/28 02:41:35;;;;;;;3.28;1.15;;;14.40;99.90;;;;;;5083086;28;20096;-67
2022/06/28 02:44:01;;;;;;;5.10;0.95;;;14.40;99.90;;;;;;5048787;28;20029;-67
2022/06/28 02:46:27;;;;;;;4.25;1.15;;;14.40;99.90;;;;;;5082208;28;20039;-69
2022/06/28 02:48:53;;;;;;;4.05;0.93;;;14.40;99.90;;;;;;5082987;28;20068;-67
2022/06/28 02:51:20;;;;;;;4.88;1.17;;;14.40;99.90;;;;;;5082891;28;20109;-67
2022/06/28 02:53:46;;;;;;;4.47;0.98;;;14.40;99.90;;;;;;5082504;28;20032;-67
2022/06/28 02:56:12;;;;;;;8.35;1.20;;;14.30;99.90;;;;;;5065818;28;20008;-66
2022/06/28 02:58:38;;;;;;;3.80;0.88;;;14.30;99.90;;;;;;5083160;28;20041;-66
2022/06/28 03:01:04;;;;;;;3.35;1.20;;;14.30;99.90;;;;;;5083852;28;20036;-66
2022/06/28 03:03:30;;;;;;;4.72;1.17;;;14.30;99.90;;;;;;5066121;28;20020;-68
2022/06/28 03:05:57;;;;;;;4.65;1.10;;;14.30;99.90;;;;;;5065608;28;20330;-67
2022/06/28 03:08:24;;;;;;;4.43;1.00;;;14.40;99.90;;;;;;5064773;28;20048;-69
2022/06/28 03:10:51;;;;;;;3.28;0.95;;;14.30;99.90;;;;;;5048694;28;20047;-67
2022/06/28 03:13:17;;;;;;;8.00;1.15;;;14.30;99.90;;;;;;5082911;28;20021;-67
2022/06/28 03:15:43;;;;;;;3.45;0.98;;;14.20;99.90;;;;;;5065280;28;20040;-67
2022/06/28 03:18:08;;;;;;;4.40;1.13;;;14.30;99.90;;;;;;5065238;28;20537;-66
2022/06/28 03:20:34;;;;;;;3.97;1.10;;;14.30;99.90;;;;;;5082763;28;20071;-67
2022/06/28 03:23:00;;;;;;;4.85;1.20;;;14.40;99.90;;;;;;5082813;28;20185;-68
2022/06/28 03:25:27;;;;;;;4.30;1.00;;;14.40;99.90;;;;;;5065353;28;20039;-68
2022/06/28 03:27:53;;;;;;;3.88;1.15;;;14.40;99.90;;;;;;5081394;28;20028;-65
2022/06/28 03:30:19;;;;;;;2.83;0.90;;;14.30;99.90;;;;;;5082546;28;20033;-68
2022/06/28 03:32:45;;;;;;;2.95;1.10;;;14.30;99.90;;;;;;5065008;28;20031;-67
2022/06/28 03:35:15;;;;;;;5.90;1.10;;;14.30;99.90;;;;;;5064775;28;20115;-69
2022/06/28 03:37:41;;;;;;;3.88;1.33;;;14.20;99.90;;;;;;5064971;28;20049;-66
2022/06/28 03:40:09;;;;;;;2.42;0.80;;;14.10;99.90;;;;;;5065003;28;20037;-66
2022/06/28 03:42:41;;;;;;;5.07;1.02;;;14.00;99.90;;;;;;5064111;28;20045;-67
2022/06/28 03:45:07;;;;;;;5.53;1.15;;;14.00;99.90;;;;;;5064810;28;20502;-68
2022/06/28 03:47:34;;;;;;;5.95;1.00;;;14.00;99.90;;;;;;5064567;28;20098;-68
2022/06/28 03:50:03;;;;;;;6.80;1.27;;;14.00;99.90;;;;;;5082064;28;20119;-67
2022/06/28 03:53:08;;;;;;;5.72;1.38;;;14.10;99.90;;;;;;5065124;28;20052;-66
2022/06/28 03:55:53;;;;;;;4.88;1.10;;;14.20;99.90;;;;;;5080361;28;20074;-67
2022/06/28 03:58:19;;;;;;;7.07;1.67;;;14.20;99.90;;;;;;5045513;28;20029;-66
2022/06/28 04:00:45;;;;;;;3.92;1.20;;;14.10;99.90;;;;;;5045743;28;20047;-65
2022/06/28 04:03:11;;;;;;;3.95;1.10;;;14.10;99.90;;;;;;5045539;28;20041;-66
2022/06/28 04:05:42;;;;;;;5.03;1.20;;;14.20;99.90;;;;;;5062079;28;20123;-65
2022/06/28 04:08:08;;;;;;;5.03;1.08;;;14.20;99.90;;;;;;5061065;28;20049;-68
2022/06/28 04:10:47;;;;;;;5.32;1.38;;;14.20;99.90;;;;;;5079463;28;20344;-67
2022/06/28 04:13:17;;;;;;;5.28;1.30;;;14.20;99.90;;;;;;5063819;28;20035;-66
2022/06/28 04:15:43;;;;;;;3.80;1.10;;;14.20;99.90;;;;;;5080532;28;20396;-67
2022/06/28 04:18:12;;;;;;;6.97;1.45;;;14.10;99.90;;;;;;5062607;28;20032;-67
2022/06/28 04:20:41;;;;;;;6.63;1.60;;;14.00;99.90;;;;;;5080800;28;20044;-66
2022/06/28 04:23:08;;;;;;;4.00;1.42;;;14.00;99.90;;;;;;5045977;28;20475;-66
2022/06/28 04:25:36;;;;;;;6.95;1.48;;;14.00;99.90;;;;;;5062881;28;20047;-67
2022/06/28 04:28:16;;;;;;;5.38;1.30;;;14.00;99.90;;;;;;5063188;28;20086;-68
2022/06/28 04:30:53;;;;;;;5.78;1.58;;;14.00;99.90;;;;;;5047545;28;20144;-66
2022/06/28 04:33:20;;;;;;;5.55;1.10;;;13.90;99.90;;;;;;5046867;28;20029;-67
2022/06/28 04:35:46;;;;;;;5.72;1.48;;;13.90;99.90;;;;;;5063436;28;20278;-67
2022/06/28 04:38:12;;;;;;;6.22;1.55;;;13.80;99.90;;;;;;5062877;28;20051;-68
2022/06/28 04:40:52;;;;;;;5.22;1.30;;;13.80;99.90;;;;;;5048323;28;20082;-68
2022/06/28 04:43:32;;;;;;;6.57;1.45;;;13.80;99.90;;;;;;5063437;28;20033;-67
2022/06/28 04:45:59;;;;;;;7.05;1.90;;;13.90;99.90;;;;;;5062548;28;20036;-66
2022/06/28 04:48:26;;;;;;;6.22;1.58;;;13.90;99.90;;;;;;5062577;28;20304;-67
2022/06/28 04:50:52;;;;;;;7.72;1.45;;;14.00;99.90;;;;;;5028975;28;20040;-67
2022/06/28 04:53:19;;;;;;;7.05;1.50;;;14.10;99.90;;;;;;5062685;28;20024;-67
2022/06/28 04:55:50;;;;;;;8.00;2.00;;;14.20;99.90;;;;;;5062803;28;20162;-67
2022/06/28 04:58:16;;;;;;;4.57;1.50;;;14.40;99.90;;;;;;5029199;28;20047;-68
2022/06/28 05:00:42;;;;;;;6.72;1.88;;;14.50;99.90;;;;;;5062022;28;20032;-67
2022/06/28 05:03:13;;;;;;;4.30;1.20;;;14.60;99.90;;;;;;5029638;28;20056;-66
2022/06/28 05:05:42;;;;;;;8.75;1.83;;;14.70;99.90;;;;;;5061278;28;20047;-66
2022/06/28 05:08:08;;;;;;;6.60;1.55;;;14.60;99.90;;;;;;5060650;28;20039;-65
2022/06/28 05:10:53;;;;;;;8.00;1.60;;;14.60;99.90;;;;;;5079214;28;20033;-66
2022/06/28 05:13:42;;;;;;;6.15;1.38;;;14.70;99.90;;;;;;5067689;28;20037;-67
2022/06/28 05:16:11;;;;;;;5.78;1.38;;;14.80;99.90;;;;;;5061781;28;20025;-67
2022/06/28 05:18:37;;;;;;;8.35;1.48;;;15.00;99.90;;;;;;5062153;28;20035;-67
2022/06/28 05:21:06;;;;;;;4.80;1.63;;;15.20;99.90;;;;;;5062081;28;20047;-68
2022/06/28 05:23:36;;;;;;;6.85;1.45;;;15.30;99.90;;;;;;5062298;28;20123;-65
2022/06/28 05:26:25;;;;;;;6.03;1.40;;;15.40;99.90;;;;;;5061977;28;20143;-66
2022/06/28 05:29:23;;;;;;;5.78;1.38;;;15.30;99.90;;;;;;5056666;28;20044;-65
2022/06/28 05:31:49;;;;;;;9.73;1.50;;;15.30;99.90;;;;;;5078526;28;20419;-67
2022/06/28 05:34:15;;;;;;;8.63;1.73;;;15.10;99.90;;;;;;5080069;28;20048;-66
2022/06/28 05:36:41;;;;;;;3.83;1.42;;;15.10;99.90;;;;;;5061316;28;20063;-61
2022/06/28 05:39:09;;;;;;;6.05;1.30;;;15.30;99.90;;;;;;5062602;28;20028;-69
2022/06/28 05:41:35;;;;;;;4.75;1.40;;;15.40;99.90;;;;;;5062110;28;20051;-67
2022/06/28 05:44:02;;;;;;;9.15;1.50;;;15.40;99.90;;;;;;5062368;28;20033;-66
2022/06/28 05:46:28;;;;;;;7.28;1.50;;;15.40;99.90;;;;;;5061422;28;20031;-68
2022/06/28 05:48:54;;;;;;;7.32;1.65;;;15.40;99.90;;;;;;5079559;28;20040;-69
2022/06/28 05:51:20;;;;;;;10.52;2.00;;;15.40;99.90;;;;;;5048695;28;20348;-66
2022/06/28 05:53:46;;;;;;;7.13;1.67;;;15.50;99.90;;;;;;5083512;28;20029;-67
2022/06/28 05:56:12;;;;;;;5.88;1.55;;;15.60;99.90;;;;;;5064281;28;20036;-66
2022/06/28 05:58:38;;;;;;;3.95;1.02;;;15.40;99.90;;;;;;5081576;28;20067;-67
2022/06/28 06:01:04;;;;;;;8.30;2.03;;;15.50;99.90;;;;;;5064422;28;20033;-68
2022/06/28 06:03:32;;;;;;;5.93;1.30;;;15.50;99.90;;;;;;5064934;28;20028;-66
2022/06/28 06:05:58;;;;;;;7.07;1.40;;;15.70;99.90;;;;;;5082444;28;20120;-67
2022/06/28 06:08:24;;;;;;;10.05;1.27;;;15.70;99.90;;;;;;5063508;28;20047;-65
2022/06/28 06:10:51;;;;;;;8.35;1.55;;;15.80;99.90;;;;;;5063124;28;20123;-65
2022/06/28 06:13:17;;;;;;;8.23;1.58;;;15.60;99.90;;;;;;5081056;28;20113;-68
2022/06/28 06:15:43;;;;;;;7.63;1.40;;;15.70;99.90;;;;;;5049153;28;20025;-65
2022/06/28 06:18:09;;;;;;;8.90;1.52;;;15.80;99.90;;;;;;5063041;28;20021;-65
2022/06/28 06:20:35;;;;;;;7.55;1.75;;;15.80;99.90;;;;;;5064336;28;20086;-68
2022/06/28 06:23:00;;;;;;;7.35;1.20;;;15.80;99.90;;;;;;5062596;28;20341;-66
2022/06/28 06:25:46;;;;;;;8.05;1.52;;;15.80;99.90;;;;;;5065906;28;20067;-67
2022/06/28 06:28:12;;;;;;;7.47;1.38;;;16.00;99.90;;;;;;5064083;28;20389;-66
2022/06/28 06:30:39;;;;;;;10.65;1.63;;;16.10;99.90;;;;;;5080664;28;20111;-66
2022/06/28 06:33:17;;;;;;;7.65;1.42;;;16.30;99.90;;;;;;5062990;28;20037;-66
2022/06/28 06:36:06;;;;;;;11.55;1.30;;;16.20;99.90;;;;;;5066186;28;20037;-63
2022/06/28 06:38:33;;;;;;;4.40;1.30;;;16.40;99.90;;;;;;5063855;28;20036;-68
2022/06/28 06:40:59;;;;;;;8.55;1.30;;;16.60;99.90;;;;;;5046900;28;20313;-65
2022/06/28 06:43:28;;;;;;;4.88;1.20;;;16.50;99.90;;;;;;5062594;28;20037;-65
2022/06/28 06:46:07;;;;;;;7.75;1.85;;;16.40;99.90;;;;;;5062835;28;20089;-65
2022/06/28 06:48:32;;;;;;;7.70;1.13;;;16.40;99.90;;;;;;5079966;28;20036;-65
2022/06/28 06:50:58;;;;;;;8.80;1.42;;;16.40;99.90;;;;;;5062533;28;20274;-67
2022/06/28 06:53:24;;;;;;;4.43;1.20;;;16.60;99.90;;;;;;5063754;28;20044;-69
2022/06/28 06:55:50;;;;;;;5.70;1.25;;;16.90;99.90;;;;;;5063301;28;20028;-64
2022/06/28 06:58:16;;;;;;;8.73;1.40;;;16.70;99.90;;;;;;5062117;28;20025;-65
2022/06/28 07:00:42;;;;;;;7.22;1.15;;;16.50;99.90;;;;;;5045467;28;20025;-65
2022/06/28 07:03:08;;;;;;;6.53;1.02;;;16.40;99.90;;;;;;5079654;28;20032;-66
2022/06/28 07:05:39;;;;;;;7.45;1.30;;;16.50;99.90;;;;;;5061977;28;20043;-65
2022/06/28 07:08:05;;;;;;;7.78;1.88;;;16.60;99.90;;;;;;5061660;28;20032;-68
2022/06/28 07:10:38;;;;;;;4.95;1.00;;;16.60;99.90;;;;;;5047339;28;20035;-68
2022/06/28 07:13:04;;;;;;;5.30;1.13;;;16.80;99.90;;;;;;5079521;28;20033;-66
2022/06/28 07:15:30;;;;;;;4.10;0.90;;;16.80;99.90;;;;;;5045311;28;20047;-65
2022/06/28 07:17:56;;;;;;;7.20;1.40;;;16.90;99.90;;;;;;5079209;28;20025;-67
2022/06/28 07:20:22;;;;;;;3.35;0.80;;;16.90;99.90;;;;;;5080560;28;20029;-65
2022/06/28 07:22:48;;;;;;;8.25;1.30;;;17.00;99.90;;;;;;5061949;28;20403;-67
2022/06/28 07:25:18;;;;;;;5.30;0.95;;;17.20;99.90;;;;;;5046636;28;20060;-70
2022/06/28 07:27:44;;;;;;;4.10;1.00;;;17.40;99.90;;;;;;5062604;28;20079;-68
2022/06/28 07:30:11;;;;;;;7.78;1.13;;;17.40;99.90;;;;;;5079900;28;20035;-67
2022/06/28 07:32:37;;;;;;;5.25;0.88;;;17.40;99.90;;;;;;5061392;28;20388;-66
2022/06/28 07:35:04;;;;;;;6.22;0.95;;;17.30;99.90;;;;;;5079762;28;20037;-66
2022/06/28 07:37:29;;;;;;;4.40;0.90;;;17.30;99.90;;;;;;5061561;28;20021;-62
2022/06/28 07:39:56;;;;;;;4.90;1.25;;;17.50;99.90;;;;;;5062403;28;20025;-68
2022/06/28 07:42:54;;;;;;;4.25;0.80;;;17.80;99.90;;;;;;5080035;28;20068;-65
2022/06/28 07:45:43;;;;;;;5.45;1.00;;;18.00;99.90;;;;;;5078680;28;20332;-64
2022/06/28 07:48:12;;;;;;;5.60;1.17;;;17.50;99.90;;;;;;5061085;28;20086;-66
2022/06/28 07:53:24;;;;;;;6.22;1.17;;;17.40;99.90;;;;;;5060898;28;20060;-65
2022/06/28 07:56:21;;;;;;;4.57;0.85;;;17.50;99.90;;;;;;5023383;28;20028;-65
2022/06/28 07:58:48;;;;;;;6.25;1.17;;;17.50;99.90;;;;;;5060871;28;20028;-65
2022/06/28 08:01:20;;;;;;;5.15;0.90;;;17.60;99.90;;;;;;5061142;28;20048;-66
2022/06/28 08:03:46;;;;;;;5.03;1.00;;;17.90;99.90;;;;;;5078247;28;20119;-65
2022/06/28 08:06:12;;;;;;;3.15;0.88;;;17.90;99.90;;;;;;5060798;28;20029;-65
2022/06/28 08:08:47;;;;;;;3.72;0.60;;;18.10;99.90;;;;;;5061438;28;20397;-65
2022/06/28 08:11:14;;;;;;;5.43;0.85;;;18.70;99.90;;;;;;5060481;28;20043;-66
2022/06/28 08:13:41;;;;;;;2.35;0.65;;;18.70;99.90;;;;;;5044911;28;20346;-64
2022/06/28 08:16:08;;;;;;;3.70;0.90;;;19.10;99.90;;;;;;5063174;28;20035;-66
2022/06/28 08:18:34;;;;;;;3.17;0.90;;;19.10;99.90;;;;;;5080589;28;20420;-67
2022/06/28 08:21:00;;;;;;;3.58;0.55;;;19.20;99.90;;;;;;5063274;28;20060;-65
2022/06/28 08:23:26;;;;;;;3.72;0.70;;;19.00;99.90;;;;;;5081238;28;20139;-66
2022/06/28 08:25:52;;;;;;;2.72;0.60;;;19.20;99.90;;;;;;5062191;28;20075;-66
2022/06/28 08:28:18;;;;;;;3.03;0.60;;;19.30;99.90;;;;;;5061006;28;20392;-65
2022/06/28 08:30:44;;;;;;;2.85;0.57;;;19.10;99.90;;;;;;5077971;28;20047;-66
2022/06/28 08:33:10;;;;;;;3.33;0.70;;;18.80;99.90;;;;;;5061396;28;20404;-66
2022/06/28 08:35:37;;;;;;;2.22;0.50;;;18.80;99.90;;;;;;5078874;28;20016;-67
2022/06/28 08:38:06;;;;;;;4.22;0.80;;;18.90;99.90;;;;;;5078136;28;20111;-65
2022/06/28 08:40:33;;;;;;;4.80;0.60;;;18.80;99.90;;;;;;5077524;28;20020;-66
2022/06/28 08:43:00;;;;;;;4.30;0.60;;;18.70;99.90;;;;;;5078719;28;20047;-67
2022/06/28 08:45:27;;;;;;;3.38;0.60;;;18.80;99.90;;;;;;5046349;28;20036;-69
2022/06/28 08:47:55;;;;;;;1.27;0.50;;;19.00;99.90;;;;;;5080038;28;20384;-67
2022/06/28 08:50:34;;;;;;;3.75;0.50;;;19.10;99.90;;;;;;5080478;28;20408;-66
2022/06/28 08:53:01;;;;;;;2.33;0.50;;;19.30;99.90;;;;;;5061890;28;20036;-67
2022/06/28 08:55:30;;;;;;;2.40;0.50;;;19.30;99.90;;;;;;5062073;28;20115;-69
2022/06/28 08:58:01;;;;;;;2.45;0.40;;;19.40;99.90;;;;;;5080374;28;20016;-67
2022/06/28 09:00:27;;;;;;;1.02;0.50;;;19.50;99.90;;;;;;5080020;28;20036;-68
2022/06/28 09:02:54;;;;;;;2.08;0.50;;;19.70;99.90;;;;;;5079470;28;20126;-67
2022/06/28 09:05:21;;;;;;;1.77;0.60;;;19.70;99.90;;;;;;5079812;28;20060;-65
2022/06/28 09:07:47;;;;;;;3.60;0.50;;;19.80;99.90;;;;;;5078748;28;20025;-67
2022/06/28 09:10:13;;;;;;;1.85;0.60;;;19.70;99.90;;;;;;5044186;28;20385;-66
2022/06/28 09:12:39;;;;;;;3.83;0.60;;;19.70;99.90;;;;;;5078467;28;20029;-65
2022/06/28 09:15:06;;;;;;;4.30;0.80;;;19.50;99.90;;;;;;5078077;28;20033;-66
2022/06/28 09:17:33;;;;;;;2.13;0.65;;;19.30;99.90;;;;;;5059893;28;20067;-64
2022/06/28 09:20:10;;;;;;;3.05;0.65;;;19.20;99.90;;;;;;5077052;28;20400;-65
2022/06/28 09:22:42;;;;;;;2.13;0.47;;;18.90;99.90;;;;;;5076897;28;20387;-64
2022/06/28 09:25:13;;;;;;;9.20;0.80;;;18.90;99.90;;;;;;5076176;28;20273;-64
2022/06/28 09:27:42;;;;;;;3.17;0.70;;;19.00;99.90;;;;;;5076688;28;20489;-65
2022/06/28 09:30:10;;;;;;;2.72;0.60;;;19.10;99.90;;;;;;5059659;28;20427;-68
2022/06/28 09:32:37;;;;;;;2.95;0.65;;;19.40;99.90;;;;;;5078247;28;20380;-68
2022/06/28 09:35:06;;;;;;;4.47;0.60;;;19.70;99.90;;;;;;5078171;28;20028;-66
2022/06/28 09:37:42;;;;;;;2.60;0.52;;;19.90;99.90;;;;;;5061083;28;20077;-68
2022/06/28 09:40:23;;;;;;;2.53;0.63;;;19.90;99.90;;;;;;5078565;28;20028;-66
2022/06/28 09:43:10;;;;;;;2.72;0.52;;;20.10;99.90;;;;;;5076872;28;20041;-64
2022/06/28 09:45:37;;;;;;;2.05;0.40;;;19.70;99.90;;;;;;5077286;28;20034;-66
2022/06/28 09:48:04;;;;;;;2.78;0.77;;;19.70;99.90;;;;;;5076780;28;20416;-65
2022/06/28 09:50:33;;;;;;;2.60;0.63;;;20.00;99.90;;;;;;5059059;28;20123;-65
2022/06/28 09:53:00;;;;;;;4.45;0.70;;;20.10;99.90;;;;;;5060368;28;20328;-65
2022/06/28 09:55:31;;;;;;;2.85;0.63;;;20.30;99.90;;;;;;5059495;28;20098;-64
2022/06/28 09:57:58;;;;;;;3.42;0.50;;;20.50;99.90;;;;;;5076900;28;20266;-63
2022/06/28 10:00:24;;;;;;;2.42;0.70;;;20.50;99.90;;;;;;5076615;28;20013;-64
2022/06/28 10:02:55;;;;;;;2.10;0.68;;;20.40;99.90;;;;;;5077613;28;20029;-66
2022/06/28 10:05:21;;;;;;;1.95;0.55;;;20.30;99.90;;;;;;5077394;28;20433;-68
2022/06/28 10:07:47;;;;;;;1.83;0.68;;;20.60;99.90;;;;;;5078115;28;20041;-67
2022/06/28 10:10:14;;;;;;;2.05;0.70;;;20.80;99.90;;;;;;5077749;28;20299;-65
2022/06/28 10:15:36;;;;;;;4.43;0.57;;;21.10;99.90;;;;;;5077124;28;20071;-67
2022/06/28 10:18:16;;;;;;;4.55;0.80;;;21.20;99.90;;;;;;5076547;28;20108;-66
2022/06/28 10:20:46;;;;;;;4.60;0.85;;;21.50;99.90;;;;;;5076421;28;20086;-67
2022/06/28 10:23:42;;;;;;;1.90;0.70;;;21.70;99.90;;;;;;5076775;28;20296;-67
2022/06/28 10:26:11;;;;;;;4.18;0.90;;;21.80;99.90;;;;;;5076841;28;20044;-68
2022/06/28 10:28:41;;;;;;;9.95;1.10;;;21.70;99.90;;;;;;5058916;28;20338;-66
2022/06/28 10:31:22;;;;;;;6.93;0.95;;;21.80;99.90;;;;;;5076720;28;20040;-66
2022/06/28 10:33:54;;;;;;;1.92;0.63;;;21.70;99.90;;;;;;5059221;28;20031;-66
2022/06/28 10:36:22;;;;;;;1.65;0.45;;;21.80;99.90;;;;;;5078662;28;20040;-68
2022/06/28 10:39:09;;;;;;;5.13;1.08;;;21.90;99.90;;;;;;5080593;28;20025;-65
2022/06/28 10:41:45;;;;;;;5.35;1.00;;;21.80;99.90;;;;;;5062248;28;20117;-66
2022/06/28 10:44:11;;;;;;;4.25;0.95;;;21.80;99.90;;;;;;5080680;28;20024;-66
2022/06/28 10:46:38;;;;;;;3.50;1.10;;;21.70;99.90;;;;;;5079741;28;20396;-66
2022/06/28 10:49:06;;;;;;;3.45;0.85;;;21.70;99.90;;;;;;5080145;28;20051;-67
2022/06/28 10:51:33;;;;;;;2.67;0.82;;;21.90;99.90;;;;;;5079780;28;20051;-65
2022/06/28 10:54:05;;;;;;;2.75;0.73;;;22.10;99.90;;;;;;5079818;28;20031;-66
2022/06/28 10:56:44;;;;;;;3.40;0.80;;;22.40;99.90;;;;;;5079553;28;20075;-64
2022/06/28 10:59:13;;;;;;;3.58;0.80;;;22.00;99.90;;;;;;5080586;28;20029;-70
2022/06/28 11:01:42;;;;;;;2.42;0.70;;;22.30;99.90;;;;;;5063314;28;20041;-68
2022/06/28 11:04:23;;;;;;;2.75;0.70;;;22.70;99.90;;;;;;5080225;28;20021;-62
2022/06/28 11:06:56;;;;;;;3.55;0.93;;;22.90;99.90;;;;;;5079870;28;20094;-65
2022/06/28 11:09:43;;;;;;;3.65;0.80;;;22.90;99.90;;;;;;5080436;28;20024;-64
2022/06/28 11:12:11;;;;;;;1.95;0.70;;;24.00;99.90;;;;;;5081059;28;20307;-68
2022/06/28 11:14:48;;;;;;;2.65;0.70;;;24.80;99.90;;;;;;5079647;28;20361;-67
2022/06/28 11:17:26;;;;;;;3.08;0.75;;;24.50;99.90;;;;;;5079639;28;20067;-62
2022/06/28 11:19:55;;;;;;;2.20;0.77;;;24.80;99.90;;;;;;5079162;28;20335;-67
2022/06/28 11:22:29;;;;;;;4.25;0.70;;;24.60;99.90;;;;;;5079891;28;20024;-68
2022/06/28 11:24:58;;;;;;;3.00;0.70;;;25.00;99.90;;;;;;5079333;28;20032;-63
2022/06/28 11:27:26;;;;;;;2.70;0.73;;;25.00;99.90;;;;;;5079071;28;20048;-68
2022/06/28 11:29:55;;;;;;;4.82;0.80;;;25.20;99.90;;;;;;5079415;28;20041;-68
2022/06/28 11:32:32;;;;;;;2.72;0.70;;;24.90;99.90;;;;;;5079362;28;20082;-67
2022/06/28 11:35:06;;;;;;;4.05;0.82;;;25.50;99.90;;;;;;5080422;28;20028;-70
2022/06/28 11:37:45;;;;;;;4.22;0.85;;;26.60;99.90;;;;;;5079201;28;20035;-66
2022/06/28 11:40:11;;;;;;;2.25;0.60;;;27.00;99.90;;;;;;5079044;28;20320;-65
2022/06/28 11:42:37;;;;;;;2.22;0.70;;;26.40;99.90;;;;;;5078637;28;20032;-64
2022/06/28 11:45:03;;;;;;;3.28;0.80;;;25.90;99.90;;;;;;5078923;28;20090;-65
2022/06/28 11:47:29;;;;;;;3.08;0.70;;;26.20;99.90;;;;;;5060330;28;20028;-66
2022/06/28 11:50:18;;;;;;;2.70;0.63;;;27.70;99.90;;;;;;5061985;28;20047;-65
2022/06/28 11:52:55;;;;;;;2.63;0.77;;;27.60;99.90;;;;;;5078600;28;20032;-66
2022/06/28 11:55:45;;;;;;;2.88;0.63;;;25.70;99.90;;;;;;5078387;28;20131;-64
2022/06/28 11:58:15;;;;;;;3.03;0.50;;;27.40;99.90;;;;;;5078798;28;20021;-67
2022/06/28 12:01:05;;;;;;;1.65;0.63;;;29.90;99.90;;;;;;5078816;28;20067;-67
2022/06/28 12:03:33;;;;;;;2.92;0.60;;;32.50;97.30;;;;;;5061328;28;20114;-66
2022/06/28 12:06:00;;;;;;;2.47;0.90;;;33.70;90.10;;;;;;5078263;28;20051;-66
2022/06/28 12:08:49;;;;;;;2.80;0.80;;;31.30;89.30;;;;;;5078136;28;20048;-64
2022/06/28 12:11:29;;;;;;;1.73;0.70;;;30.70;91.10;;;;;;5078263;28;20400;-66
2022/06/28 12:14:03;;;;;;;3.80;0.70;;;31.90;89.70;;;;;;5078003;28;20094;-66
2022/06/28 12:16:48;;;;;;;3.53;0.80;;;33.60;86.80;;;;;;5078535;28;20020;-67
2022/06/28 12:19:16;;;;;;;3.78;0.90;;;33.60;81.60;;;;;;5060357;28;20407;-63
2022/06/28 12:22:02;;;;;;;4.10;0.85;;;31.80;82.70;;;;;;5077869;28;20020;-65
2022/06/28 12:24:49;;;;;;;1.85;0.82;;;31.20;85.10;;;;;;5043941;28;20073;-67
2022/06/28 12:27:27;;;;;;;2.95;0.65;;;31.30;87.40;;;;;;5077791;28;20316;-65
2022/06/28 12:29:57;;;;;;;2.63;0.80;;;32.40;82.00;;;;;;5077849;28;20039;-65
2022/06/28 12:32:24;;;;;;;2.15;0.70;;;33.20;77.30;;;;;;5077952;28;20465;-66
2022/06/28 12:35:07;;;;;;;2.25;0.70;;;30.90;80.30;;;;;;5077812;28;20017;-67
2022/06/28 12:37:34;;;;;;;1.33;0.60;;;32.70;77.70;;;;;;5078103;28;20036;-65
2022/06/28 12:40:03;;;;;;;5.65;0.90;;;31.80;77.60;;;;;;5077712;28;20028;-66
2022/06/28 12:42:30;;;;;;;3.38;0.80;;;30.90;78.60;;;;;;5077648;28;20021;-66
2022/06/28 12:45:00;;;;;;;3.22;0.45;;;31.40;79.50;;;;;;5060215;28;20178;-67
2022/06/28 12:47:28;;;;;;;2.30;0.70;;;32.20;77.10;;;;;;5077653;28;20126;-63
2022/06/28 12:49:53;;;;;;;3.25;0.85;;;34.20;71.70;;;;;;5077734;28;20024;-65
2022/06/28 12:52:19;;;;;;;5.30;0.90;;;34.20;70.90;;;;;;5077261;28;20043;-66
2022/06/28 12:54:46;;;;;;;2.58;0.60;;;32.70;70.20;;;;;;5077187;28;20404;-65
2022/06/28 12:57:12;;;;;;;1.63;0.70;;;32.50;72.20;;;;;;5077694;28;20098;-65
2022/06/28 12:59:38;;;;;;;1.45;0.60;;;33.10;70.70;;;;;;5059770;28;20098;-67
2022/06/28 13:02:04;;;;;;;3.97;0.65;;;33.40;72.10;;;;;;5077871;28;20036;-68
2022/06/28 13:04:30;;;;;;;2.65;0.75;;;34.20;68.30;;;;;;5077300;28;20036;-66
2022/06/28 13:06:55;;;;;;;2.58;0.60;;;33.50;68.80;;;;;;5059817;28;20036;-68
2022/06/28 13:09:21;;;;;;;3.50;0.88;;;32.50;73.00;;;;;;5077080;28;20029;-67
2022/06/28 13:11:47;;;;;;;2.40;1.02;;;31.50;73.70;;;;;;5077169;28;20039;-63
2022/06/28 13:14:13;;;;;;;2.03;1.08;;;31.90;73.20;;;;;;5077043;28;20301;-65
2022/06/28 13:16:38;;;;;;;1.42;0.50;;;33.80;71.90;;;;;;5059780;28;20059;-67